createdAt,value
2023-04-22T00:00:17.081Z,1.83
2023-04-22T00:02:45.793Z,1.90
2023-04-22T00:05:17.022Z,1.73
2023-04-22T00:07:47.405Z,1.88
2023-04-22T00:10:15.561Z,1.80
2023-04-22T00:12:43.439Z,2.08
2023-04-22T00:15:13.469Z,1.40
2023-04-22T00:17:42.774Z,1.92
2023-04-22T00:20:12.656Z,1.87
2023-04-22T00:22:40.642Z,1.90
2023-04-22T00:25:09.564Z,2.08
2023-04-22T00:27:37.778Z,2.10
2023-04-22T00:30:06.655Z,1.77
2023-04-22T00:32:36.027Z,1.73
2023-04-22T00:35:04.038Z,2.20
2023-04-22T00:37:31.968Z,2.10
2023-04-22T00:39:59.825Z,1.90
2023-04-22T00:42:28.342Z,2.00
2023-04-22T00:44:56.812Z,1.67
2023-04-22T00:47:26.981Z,1.98
2023-04-22T00:49:56.395Z,2.22
2023-04-22T00:52:24.227Z,1.73
2023-04-22T00:54:53.168Z,2.03
2023-04-22T00:57:21.637Z,1.83
2023-04-22T00:59:50.542Z,2.40
2023-04-22T01:02:19.286Z,1.92
2023-04-22T01:04:48.098Z,2.08
2023-04-22T01:07:17.428Z,2.03
2023-04-22T01:09:45.278Z,2.33
2023-04-22T01:12:13.165Z,2.47
2023-04-22T01:14:41.323Z,1.90
2023-04-22T01:17:10.674Z,1.80
2023-04-22T01:19:38.870Z,2.30
2023-04-22T01:22:08.930Z,1.83
2023-04-22T01:24:38.752Z,2.70
2023-04-22T01:27:06.612Z,1.83
2023-04-22T01:29:34.712Z,1.92
2023-04-22T01:32:04.053Z,1.60
2023-04-22T01:34:32.439Z,2.03
2023-04-22T01:37:00.397Z,2.40
2023-04-22T01:39:28.712Z,2.65
2023-04-22T01:41:58.576Z,2.00
2023-04-22T01:44:26.930Z,2.30
2023-04-22T01:46:55.252Z,2.50
2023-04-22T01:49:23.252Z,1.95
2023-04-22T01:51:51.078Z,2.03
2023-04-22T01:54:19.066Z,2.40
2023-04-22T01:56:51.946Z,2.08
2023-04-22T01:59:21.513Z,2.75
2023-04-22T02:01:49.615Z,2.42
2023-04-22T02:04:17.683Z,2.80
2023-04-22T02:06:45.596Z,1.88
2023-04-22T02:09:13.504Z,2.85
2023-04-22T02:11:41.402Z,2.70
2023-04-22T02:14:09.391Z,2.17
2023-04-22T02:16:38.671Z,2.30
2023-04-22T02:19:06.596Z,2.80
2023-04-22T02:21:34.854Z,2.70
2023-04-22T02:24:02.969Z,1.95
2023-04-22T02:26:30.877Z,2.58
2023-04-22T02:29:01.594Z,2.67
2023-04-22T02:31:29.618Z,2.42
2023-04-22T02:33:58.971Z,2.35
2023-04-22T02:36:27.781Z,2.77
2023-04-22T02:38:55.738Z,2.45
2023-04-22T02:41:23.672Z,2.20
2023-04-22T02:43:51.562Z,2.38
2023-04-22T02:46:19.600Z,3.20
2023-04-22T02:48:48.750Z,2.83
2023-04-22T02:51:18.014Z,3.47
2023-04-22T02:53:45.938Z,2.83
2023-04-22T02:56:13.837Z,3.03
2023-04-22T02:58:41.827Z,3.60
2023-04-22T03:01:09.765Z,3.00
2023-04-22T03:03:37.963Z,2.53
2023-04-22T03:06:06.205Z,3.13
2023-04-22T03:08:35.559Z,3.28
2023-04-22T03:11:03.426Z,3.05
2023-04-22T03:13:31.241Z,3.35
2023-04-22T03:15:59.298Z,3.83
2023-04-22T03:18:27.297Z,3.20
2023-04-22T03:20:55.285Z,3.17
2023-04-22T03:23:23.237Z,3.42
2023-04-22T03:25:52.477Z,3.10
2023-04-22T03:28:20.377Z,4.00
2023-04-22T03:30:48.679Z,3.33
2023-04-22T03:33:16.750Z,2.38
2023-04-22T03:35:44.838Z,2.75
2023-04-22T03:38:12.761Z,3.20
2023-04-22T03:40:41.118Z,2.28
2023-04-22T03:43:10.774Z,2.95
2023-04-22T03:45:38.793Z,2.75
2023-04-22T03:48:07.117Z,3.35
2023-04-22T03:50:35.093Z,3.15
2023-04-22T03:53:03.042Z,2.83
2023-04-22T03:55:30.854Z,2.80
2023-04-22T03:57:58.915Z,2.80
2023-04-22T04:00:30.588Z,2.83
2023-04-22T04:02:58.647Z,3.08
2023-04-22T04:05:27.080Z,3.63
2023-04-22T04:07:55.373Z,2.80
2023-04-22T04:10:23.400Z,3.00
2023-04-22T04:12:51.372Z,2.70
2023-04-22T04:15:21.366Z,3.25
2023-04-22T04:17:50.806Z,3.08
2023-04-22T04:20:18.826Z,3.10
2023-04-22T04:22:46.842Z,4.05
2023-04-22T04:25:14.759Z,2.78
2023-04-22T04:27:42.702Z,3.40
2023-04-22T04:30:11.447Z,3.53
2023-04-22T04:32:39.997Z,3.53
2023-04-22T04:35:12.990Z,3.58
2023-04-22T04:37:40.914Z,3.08
2023-04-22T04:40:12.262Z,3.50
2023-04-22T04:42:40.219Z,3.10
2023-04-22T04:45:10.344Z,3.28
2023-04-22T04:50:07.027Z,3.50
2023-04-22T04:52:36.341Z,3.78
2023-04-22T04:55:04.351Z,3.37
2023-04-22T04:57:32.273Z,3.92
2023-04-22T05:00:00.587Z,4.40
2023-04-22T05:02:28.630Z,4.10
2023-04-22T05:04:56.921Z,3.90
2023-04-22T05:07:24.952Z,3.55
2023-04-22T05:09:54.225Z,3.40
2023-04-22T05:12:22.119Z,3.93
2023-04-22T05:14:50.101Z,3.65
2023-04-22T05:17:18.060Z,3.50
2023-04-22T05:19:46.110Z,3.58
2023-04-22T05:22:14.039Z,3.53
2023-04-22T05:24:41.970Z,3.17
2023-04-22T05:27:11.432Z,2.80
2023-04-22T05:29:39.526Z,3.10
2023-04-22T05:32:08.537Z,2.75
2023-04-22T05:34:36.699Z,2.22
2023-04-22T05:37:05.550Z,1.98
2023-04-22T05:39:33.650Z,2.60
2023-04-22T05:42:01.941Z,2.42
2023-04-22T05:44:31.133Z,2.25
2023-04-22T05:46:58.992Z,1.98
2023-04-22T05:49:26.835Z,1.95
2023-04-22T05:51:54.787Z,3.15
2023-04-22T05:54:22.659Z,2.45
2023-04-22T05:56:50.720Z,2.03
2023-04-22T05:59:19.687Z,2.03
2023-04-22T06:01:51.166Z,2.05
2023-04-22T06:04:20.228Z,1.88
2023-04-22T06:06:48.540Z,2.35
2023-04-22T06:09:16.412Z,2.70
2023-04-22T06:11:44.257Z,1.80
2023-04-22T06:14:13.116Z,1.73
2023-04-22T06:16:41.199Z,2.40
2023-04-22T06:19:10.508Z,2.42
2023-04-22T06:21:40.498Z,2.42
2023-04-22T06:24:10.271Z,1.77
2023-04-22T06:26:38.316Z,2.03
2023-04-22T06:29:06.666Z,1.73
2023-04-22T06:31:34.814Z,1.70
2023-04-22T06:34:02.776Z,2.05
2023-04-22T06:36:33.105Z,1.73
2023-04-22T06:39:01.143Z,1.60
2023-04-22T06:41:29.065Z,1.98
2023-04-22T06:43:56.948Z,1.50
2023-04-22T06:46:24.945Z,1.85
2023-04-22T06:48:52.787Z,1.90
2023-04-22T06:51:20.836Z,2.30
2023-04-22T06:53:50.175Z,2.17
2023-04-22T06:56:18.137Z,1.70
2023-04-22T06:58:46.032Z,1.75
2023-04-22T07:01:13.920Z,1.73
2023-04-22T07:03:41.909Z,2.30
2023-04-22T07:06:10.774Z,2.28
2023-04-22T07:08:38.789Z,2.22
2023-04-22T07:11:08.112Z,2.10
2023-04-22T07:13:36.066Z,2.10
2023-04-22T07:16:04.106Z,1.90
2023-04-22T07:18:32.170Z,1.90
2023-04-22T07:21:00.118Z,1.90
2023-04-22T07:23:28.152Z,1.90
2023-04-22T07:25:56.137Z,1.77
2023-04-22T07:28:25.538Z,1.90
2023-04-22T07:30:55.722Z,1.95
2023-04-22T07:33:23.659Z,2.00
2023-04-22T07:35:51.515Z,1.90
2023-04-22T07:38:19.488Z,2.30
2023-04-22T07:40:47.440Z,1.60
2023-04-22T07:43:15.296Z,1.60
2023-04-22T07:45:44.890Z,2.03
2023-04-22T07:48:12.808Z,1.40
2023-04-22T07:50:40.997Z,1.77
2023-04-22T07:53:10.784Z,1.60
2023-04-22T07:55:38.777Z,1.70
2023-04-22T07:58:06.880Z,1.50
2023-04-22T08:00:35.400Z,1.73
2023-04-22T08:03:05.914Z,1.50
2023-04-22T08:05:35.996Z,1.40
2023-04-22T08:08:03.933Z,1.70
2023-04-22T08:10:31.875Z,1.77
2023-04-22T08:12:59.831Z,2.00
2023-04-22T08:15:27.775Z,1.45
2023-04-22T08:17:55.740Z,1.70
2023-04-22T08:20:25.684Z,1.80
2023-04-22T08:22:58.197Z,1.73
2023-04-22T08:25:26.529Z,1.88
2023-04-22T08:27:54.575Z,1.75
2023-04-22T08:30:22.639Z,1.95
2023-04-22T08:32:53.091Z,1.75
2023-04-22T08:37:50.127Z,1.60
2023-04-22T08:40:17.958Z,1.67
2023-04-22T08:42:46.124Z,1.60
2023-04-22T08:45:15.042Z,1.30
2023-04-22T08:47:44.387Z,1.88
2023-04-22T08:50:12.852Z,1.58
2023-04-22T08:52:41.055Z,1.90
2023-04-22T08:55:10.879Z,1.90
2023-04-22T08:57:40.371Z,1.75
2023-04-22T09:00:10.055Z,1.67
2023-04-22T09:02:39.494Z,1.23
2023-04-22T09:05:09.651Z,1.23
2023-04-22T09:07:38.322Z,1.48
2023-04-22T09:10:08.391Z,1.35
2023-04-22T09:12:38.598Z,1.70
2023-04-22T09:15:08.804Z,1.10
2023-04-22T09:17:38.418Z,1.20
2023-04-22T09:20:08.841Z,1.45
2023-04-22T09:25:16.202Z,1.23
2023-04-22T09:27:49.751Z,1.50
2023-04-22T09:30:20.013Z,1.50
2023-04-22T09:32:55.797Z,1.80
2023-04-22T09:35:31.137Z,1.55
2023-04-22T09:38:00.484Z,1.63
2023-04-22T09:40:29.742Z,1.33
2023-04-22T09:43:03.541Z,1.10
2023-04-22T09:45:33.417Z,1.63
2023-04-22T09:48:03.318Z,1.25
2023-04-22T09:50:31.331Z,1.38
2023-04-22T09:53:01.242Z,1.42
2023-04-22T09:55:31.150Z,1.42
2023-04-22T09:58:07.348Z,1.27
2023-04-22T10:00:37.833Z,2.28
2023-04-22T10:05:38.668Z,1.67
2023-04-22T10:08:07.759Z,1.30
2023-04-22T10:10:36.472Z,1.17
2023-04-22T10:13:07.102Z,1.25
2023-04-22T10:15:37.718Z,1.10
2023-04-22T10:18:09.706Z,0.80
2023-04-22T10:20:39.085Z,1.48
2023-04-22T10:23:08.152Z,1.33
2023-04-22T10:25:36.005Z,3.08
2023-04-22T10:28:06.708Z,1.40
2023-04-22T10:30:36.723Z,1.33
2023-04-22T10:33:37.300Z,1.13
2023-04-22T10:38:42.089Z,1.30
2023-04-22T10:41:15.423Z,1.00
2023-04-22T10:43:46.291Z,1.27
2023-04-22T10:46:52.152Z,1.67
2023-04-22T10:49:21.810Z,1.23
2023-04-22T10:51:51.110Z,1.65
2023-04-22T10:54:56.550Z,1.37
2023-04-22T10:57:31.192Z,1.23
2023-04-22T11:00:01.294Z,1.52
2023-04-22T11:02:29.396Z,1.60
2023-04-22T11:05:23.436Z,1.40
2023-04-22T11:07:55.808Z,1.70
2023-04-22T11:13:02.439Z,1.10
2023-04-22T11:15:32.509Z,1.25
2023-04-22T11:18:00.633Z,2.15
2023-04-22T11:20:29.780Z,1.35
2023-04-22T11:22:58.920Z,1.55
2023-04-22T11:25:27.636Z,1.85
2023-04-22T11:27:56.249Z,1.88
2023-04-22T11:30:26.397Z,1.00
2023-04-22T11:32:58.848Z,1.50
2023-04-22T11:35:29.040Z,1.83
2023-04-22T11:37:58.738Z,1.60
2023-04-22T11:40:32.117Z,1.83
2023-04-22T11:43:03.463Z,1.30
2023-04-22T11:45:33.431Z,1.67
2023-04-22T11:48:03.974Z,1.35
2023-04-22T11:53:02.612Z,1.70
2023-04-22T11:55:33.087Z,1.10
2023-04-22T12:00:33.108Z,1.10
2023-04-22T12:03:03.760Z,0.93
2023-04-22T12:05:40.190Z,1.30
2023-04-22T12:08:09.916Z,1.65
2023-04-22T12:10:42.735Z,1.17
2023-04-22T12:13:11.041Z,0.90
2023-04-22T12:15:44.040Z,1.00
2023-04-22T12:18:13.688Z,1.05
2023-04-22T12:20:42.605Z,1.23
2023-04-22T12:23:15.437Z,1.10
2023-04-22T12:25:44.395Z,1.00
2023-04-22T12:28:13.128Z,0.80
2023-04-22T12:30:41.120Z,0.80
2023-04-22T12:33:09.483Z,1.17
2023-04-22T12:35:39.034Z,1.50
2023-04-22T12:38:06.894Z,1.10
2023-04-22T12:40:34.779Z,1.00
2023-04-22T12:43:06.173Z,1.30
2023-04-22T12:45:34.157Z,0.90
2023-04-22T12:48:02.180Z,0.98
2023-04-22T12:50:30.273Z,1.10
2023-04-22T12:52:59.567Z,0.95
2023-04-22T12:55:28.246Z,1.13
2023-04-22T12:57:56.791Z,0.90
2023-04-22T13:00:25.506Z,0.73
2023-04-22T13:02:53.559Z,1.05
2023-04-22T13:05:21.755Z,0.93
2023-04-22T13:07:56.429Z,1.00
2023-04-22T13:10:35.821Z,0.95
2023-04-22T13:13:16.666Z,1.10
2023-04-22T13:15:46.053Z,0.88
2023-04-22T13:18:14.016Z,1.02
2023-04-22T13:20:42.716Z,0.95
2023-04-22T13:23:10.886Z,0.77
2023-04-22T13:25:40.349Z,0.93
2023-04-22T13:28:08.255Z,1.02
2023-04-22T13:30:36.124Z,0.80
2023-04-22T13:33:04.094Z,1.10
2023-04-22T13:35:32.743Z,1.08
2023-04-22T13:38:03.173Z,1.05
2023-04-22T13:43:00.382Z,1.13
2023-04-22T13:45:28.506Z,1.23
2023-04-22T13:51:14.086Z,0.93
2023-04-22T13:53:42.041Z,1.85
2023-04-22T13:56:09.997Z,1.10
2023-04-22T13:58:37.884Z,1.10
2023-04-22T14:01:09.318Z,1.10
2023-04-22T14:03:38.004Z,1.20
2023-04-22T14:06:06.285Z,1.13
2023-04-22T14:08:35.669Z,1.13
2023-04-22T14:11:04.050Z,0.95
2023-04-22T14:13:32.292Z,1.00
2023-04-22T14:16:00.616Z,1.63
2023-04-22T14:18:28.897Z,1.20
2023-04-22T14:20:57.100Z,2.00
2023-04-22T14:23:24.966Z,1.20
2023-04-22T14:25:54.389Z,1.30
2023-04-22T14:28:22.429Z,1.52
2023-04-22T14:30:50.424Z,1.10
2023-04-22T14:33:18.369Z,1.20
2023-04-22T14:35:46.337Z,1.05
2023-04-22T14:38:14.479Z,0.90
2023-04-22T14:40:42.447Z,1.30
2023-04-22T14:43:11.696Z,1.33
2023-04-22T14:45:40.809Z,1.30
2023-04-22T14:48:08.823Z,1.10
2023-04-22T14:50:37.154Z,1.58
2023-04-22T14:53:05.012Z,1.35
2023-04-22T14:55:35.394Z,1.13
2023-04-22T14:58:03.382Z,1.30
2023-04-22T15:00:32.689Z,1.42
2023-04-22T15:03:00.895Z,1.60
2023-04-22T15:05:28.881Z,1.38
2023-04-22T15:07:57.873Z,1.88
2023-04-22T15:10:26.334Z,1.33
2023-04-22T15:12:55.001Z,1.42
2023-04-22T15:15:22.885Z,1.45
2023-04-22T15:17:52.591Z,1.38
2023-04-22T15:20:20.584Z,1.35
2023-04-22T15:22:52.076Z,0.95
2023-04-22T15:25:19.981Z,1.38
2023-04-22T15:27:48.713Z,1.55
2023-04-22T15:30:16.778Z,1.33
2023-04-22T15:32:44.679Z,1.10
2023-04-22T15:35:14.200Z,1.30
2023-04-22T15:37:42.071Z,1.10
2023-04-22T15:40:10.521Z,1.40
2023-04-22T15:42:38.441Z,1.45
2023-04-22T15:45:07.482Z,1.20
2023-04-22T15:47:36.755Z,1.38
2023-04-22T15:50:08.938Z,1.55
2023-04-22T15:52:39.757Z,2.00
2023-04-22T15:55:09.336Z,1.48
2023-04-22T15:57:37.457Z,1.35
2023-04-22T16:00:11.995Z,1.40
2023-04-22T16:02:42.389Z,1.25
2023-04-22T16:05:11.381Z,1.40
2023-04-22T16:07:41.012Z,1.80
2023-04-22T16:10:10.378Z,1.50
2023-04-22T16:12:38.343Z,1.33
2023-04-22T16:15:07.949Z,1.38
2023-04-22T16:17:36.141Z,1.33
2023-04-22T16:20:05.893Z,1.08
2023-04-22T16:22:33.915Z,1.20
2023-04-22T16:25:03.199Z,1.42
2023-04-22T16:27:31.834Z,1.20
2023-04-22T16:29:59.930Z,1.25
2023-04-22T16:32:27.937Z,1.00
2023-04-22T16:34:55.942Z,2.00
2023-04-22T16:37:24.150Z,1.92
2023-04-22T16:39:52.231Z,1.70
2023-04-22T16:42:21.580Z,2.25
2023-04-22T16:44:49.579Z,2.83
2023-04-22T16:47:17.468Z,1.30
2023-04-22T16:49:45.427Z,2.30
2023-04-22T16:52:13.361Z,1.70
2023-04-22T16:54:42.514Z,1.58
2023-04-22T16:57:11.525Z,1.55
2023-04-22T16:59:41.214Z,1.70
2023-04-22T17:02:10.193Z,1.42
2023-04-22T17:04:38.612Z,1.20
2023-04-22T17:07:06.656Z,1.45
2023-04-22T17:09:34.568Z,1.33
2023-04-22T17:12:02.664Z,1.55
2023-04-22T17:14:31.076Z,1.30
2023-04-22T17:17:00.441Z,1.42
2023-04-22T17:19:28.432Z,1.75
2023-04-22T17:21:56.609Z,1.55
2023-04-22T17:24:24.984Z,1.73
2023-04-22T17:26:52.973Z,1.50
2023-04-22T17:29:21.799Z,1.40
2023-04-22T17:31:50.012Z,1.85
2023-04-22T17:34:19.472Z,1.70
2023-04-22T17:36:47.410Z,1.48
2023-04-22T17:39:15.382Z,1.65
2023-04-22T17:41:43.270Z,1.98
2023-04-22T17:44:11.350Z,2.03
2023-04-22T17:46:39.282Z,1.42
2023-04-22T17:49:07.258Z,1.77
2023-04-22T17:51:36.656Z,1.42
2023-04-22T17:54:05.447Z,1.63
2023-04-22T17:56:33.417Z,1.58
2023-04-22T17:59:01.361Z,1.90
2023-04-22T18:01:30.459Z,1.65
2023-04-22T18:03:59.410Z,1.45
2023-04-22T18:06:28.995Z,1.55
2023-04-22T18:08:58.330Z,1.77
2023-04-22T18:11:27.921Z,1.33
2023-04-22T18:13:56.014Z,2.00
2023-04-22T18:16:23.966Z,1.80
2023-04-22T18:18:51.889Z,2.10
2023-04-22T18:21:19.789Z,1.98
2023-04-22T18:23:47.741Z,2.03
2023-04-22T18:26:17.139Z,1.95
2023-04-22T18:28:45.085Z,1.67
2023-04-22T18:31:13.161Z,1.48
2023-04-22T18:33:41.190Z,1.42
2023-04-22T18:36:09.637Z,1.38
2023-04-22T18:38:38.695Z,1.90
2023-04-22T18:41:06.864Z,1.70
2023-04-22T18:43:36.567Z,1.65
2023-04-22T18:46:04.521Z,1.85
2023-04-22T18:48:32.465Z,1.50
2023-04-22T18:51:00.614Z,1.45
2023-04-22T18:53:28.574Z,1.40
2023-04-22T18:55:56.564Z,1.50
2023-04-22T18:58:24.462Z,1.60
2023-04-22T19:00:53.968Z,2.13
2023-04-22T19:03:22.223Z,1.50
2023-04-22T19:05:50.195Z,1.17
2023-04-22T19:08:18.065Z,1.60
2023-04-22T19:10:45.997Z,1.67
2023-04-22T19:13:28.691Z,1.52
2023-04-22T19:15:58.946Z,1.58
2023-04-22T19:18:27.223Z,1.75
2023-04-22T19:20:57.729Z,1.60
2023-04-22T19:25:53.336Z,1.70
2023-04-22T19:28:21.247Z,2.20
2023-04-22T19:30:49.243Z,2.00
2023-04-22T19:33:18.641Z,2.53
2023-04-22T19:35:46.754Z,2.83
2023-04-22T19:38:18.975Z,3.47
2023-04-22T19:40:47.424Z,2.45
2023-04-22T19:43:17.139Z,1.95
2023-04-22T19:45:45.060Z,2.08
2023-04-22T19:48:13.473Z,1.80
2023-04-22T19:50:44.957Z,2.30
2023-04-22T19:53:13.833Z,1.92
2023-04-22T19:55:44.042Z,2.13
2023-04-22T19:58:12.335Z,1.48
2023-04-22T20:00:40.524Z,1.92
2023-04-22T20:03:10.077Z,1.60
2023-04-22T20:05:38.676Z,1.35
2023-04-22T20:08:09.380Z,1.85
2023-04-22T20:10:37.778Z,2.25
2023-04-22T20:13:06.209Z,2.33
2023-04-22T20:15:34.287Z,1.92
2023-04-22T20:18:02.505Z,1.83
2023-04-22T20:20:30.924Z,2.47
2023-04-22T20:23:04.138Z,75.68
2023-04-22T20:25:35.072Z,111.90
2023-04-22T20:28:03.820Z,82.95
2023-04-22T20:30:32.023Z,45.35
2023-04-22T20:33:00.259Z,30.50
2023-04-22T20:35:28.779Z,15.18
2023-04-22T20:38:00.288Z,9.98
2023-04-22T20:40:40.412Z,11.43
2023-04-22T20:43:13.005Z,11.85
2023-04-22T20:45:41.003Z,10.18
2023-04-22T20:48:09.286Z,4.63
2023-04-22T20:50:40.550Z,3.97
2023-04-22T20:53:08.539Z,2.17
2023-04-22T20:55:37.285Z,1.90
2023-04-22T20:58:05.488Z,1.65
2023-04-22T21:00:35.423Z,1.67
2023-04-22T21:03:05.479Z,1.60
2023-04-22T21:05:45.944Z,1.88
2023-04-22T21:08:22.801Z,1.50
2023-04-22T21:10:52.337Z,1.58
2023-04-22T21:13:21.196Z,1.25
2023-04-22T21:15:57.272Z,1.80
2023-04-22T21:18:27.029Z,1.70
2023-04-22T21:20:57.415Z,1.17
2023-04-22T21:25:56.174Z,1.65
2023-04-22T21:28:24.776Z,1.30
2023-04-22T21:30:54.590Z,1.35
2023-04-22T21:33:23.783Z,1.70
2023-04-22T21:35:51.988Z,1.30
2023-04-22T21:38:20.094Z,1.40
2023-04-22T21:40:48.649Z,1.50
2023-04-22T21:43:16.614Z,1.40
2023-04-22T21:45:44.484Z,1.80
2023-04-22T21:48:14.010Z,1.60
2023-04-22T21:50:41.919Z,1.43
2023-04-22T21:53:09.891Z,1.35
2023-04-22T21:55:37.895Z,1.65
2023-04-22T21:58:05.785Z,1.70
2023-04-22T22:00:33.696Z,1.83
2023-04-22T22:03:01.958Z,1.45
2023-04-22T22:05:31.837Z,1.30
2023-04-22T22:07:59.790Z,1.70
2023-04-22T22:10:28.118Z,1.63
2023-04-22T22:12:56.117Z,1.58
2023-04-22T22:15:24.277Z,1.90
2023-04-22T22:17:52.309Z,1.45
2023-04-22T22:20:22.619Z,1.55
2023-04-22T22:22:51.986Z,1.50
2023-04-22T22:25:19.820Z,1.48
2023-04-22T22:27:49.390Z,1.40
2023-04-22T22:30:18.629Z,1.27
2023-04-22T22:32:46.720Z,1.42
2023-04-22T22:35:15.159Z,1.60
2023-04-22T22:37:43.032Z,1.45
2023-04-22T22:40:13.588Z,1.77
2023-04-22T22:42:41.559Z,1.40
2023-04-22T22:45:10.607Z,1.70
2023-04-22T22:47:38.623Z,1.70
2023-04-22T22:50:08.282Z,2.45
2023-04-22T22:52:36.371Z,1.80
2023-04-22T22:55:04.479Z,2.40
2023-04-22T22:57:33.767Z,1.67
2023-04-22T23:00:01.581Z,1.63
2023-04-22T23:02:29.702Z,1.83
2023-04-22T23:04:58.306Z,1.40
2023-04-22T23:07:26.381Z,1.60
2023-04-22T23:09:54.328Z,1.98
2023-04-22T23:12:22.283Z,1.60
2023-04-22T23:14:51.561Z,1.70
2023-04-22T23:17:20.693Z,1.52
2023-04-22T23:19:52.611Z,1.60
2023-04-22T23:22:21.027Z,1.70
2023-04-22T23:24:49.337Z,1.50
2023-04-22T23:27:18.020Z,1.35
2023-04-22T23:29:46.554Z,1.58
2023-04-22T23:32:16.751Z,1.60
2023-04-22T23:34:46.965Z,1.70
2023-04-22T23:37:16.239Z,2.13
2023-04-22T23:39:44.504Z,1.70
2023-04-22T23:42:12.373Z,1.40
2023-04-22T23:44:40.804Z,1.58
2023-04-22T23:47:08.956Z,1.33
2023-04-22T23:49:38.429Z,1.42
2023-04-22T23:52:09.763Z,1.30
2023-04-22T23:54:40.389Z,1.65
2023-04-22T23:57:09.260Z,1.65
2023-04-22T23:59:37.704Z,1.75
